createdAt,value
2022-08-11T00:00:02.703Z,50.5
2022-08-11T00:15:04.940Z,51
2022-08-11T00:30:02.863Z,51
2022-08-11T00:45:04.495Z,51.5
2022-08-11T01:00:02.991Z,52
2022-08-11T01:15:01.694Z,52
2022-08-11T01:30:04.490Z,52
2022-08-11T01:45:03.976Z,52
2022-08-11T02:15:05.524Z,51.5
2022-08-11T02:30:02.845Z,52
2022-08-11T02:45:05.504Z,52
2022-08-11T03:00:01.843Z,52
2022-08-11T03:15:03.651Z,52
2022-08-11T03:30:02.698Z,52
2022-08-11T03:45:03.922Z,51.5
2022-08-11T04:00:03.009Z,52
2022-08-11T04:15:01.656Z,49.5
2022-08-11T04:30:05.498Z,49.5
2022-08-11T04:45:02.699Z,48.5
2022-08-11T05:00:02.925Z,48
2022-08-11T05:15:02.731Z,45
2022-08-11T05:30:01.821Z,45
2022-08-11T05:45:04.625Z,46
2022-08-11T06:00:05.561Z,47.5
2022-08-11T06:15:04.898Z,49
2022-08-11T06:30:05.811Z,50
2022-08-11T06:45:03.582Z,51.5
2022-08-11T07:00:04.657Z,51.5
2022-08-11T07:15:05.594Z,52
2022-08-11T07:30:01.912Z,52.5
2022-08-11T07:45:01.737Z,53
2022-08-11T08:00:02.541Z,52.5
2022-08-11T08:15:02.776Z,52.5
2022-08-11T08:30:06.040Z,52.5
2022-08-11T08:45:05.798Z,52.5
2022-08-11T09:00:01.977Z,52
2022-08-11T09:15:05.760Z,52.5
2022-08-11T09:30:02.474Z,52.5
2022-08-11T09:45:02.711Z,52.5
2022-08-11T10:00:05.934Z,52.5
2022-08-11T10:15:03.715Z,52
2022-08-11T10:30:05.793Z,52
2022-08-11T10:45:01.544Z,52
2022-08-11T11:00:05.945Z,52.5
2022-08-11T11:15:03.759Z,53
2022-08-11T11:30:05.725Z,55
2022-08-11T11:45:04.471Z,56
2022-08-11T12:00:02.977Z,55
2022-08-11T12:15:02.631Z,54.5
2022-08-11T12:30:02.869Z,54.5
2022-08-11T12:45:04.528Z,54
2022-08-11T13:00:03.000Z,54
2022-08-11T13:15:05.624Z,55
2022-08-11T13:30:02.957Z,54.5
2022-08-11T13:45:01.628Z,54.5
2022-08-11T14:00:04.987Z,54.5
2022-08-11T14:15:02.895Z,54
2022-08-11T14:30:02.546Z,54
2022-08-11T14:45:04.781Z,54
2022-08-11T15:00:01.704Z,54
2022-08-11T15:15:03.491Z,54
2022-08-11T15:30:01.628Z,54
2022-08-11T15:45:01.993Z,54
2022-08-11T16:00:02.799Z,54
2022-08-11T16:15:03.024Z,54.5
2022-08-11T16:30:01.666Z,54.5
2022-08-11T16:45:04.013Z,56.5
2022-08-11T17:00:03.523Z,56.5
2022-08-11T17:15:02.610Z,56
2022-08-11T17:30:01.840Z,55
2022-08-11T17:45:02.625Z,52
2022-08-11T18:00:05.932Z,50.5
2022-08-11T18:15:06.021Z,50.5
2022-08-11T18:30:03.018Z,51
2022-08-11T18:45:04.723Z,50.5
2022-08-11T19:00:03.641Z,49
2022-08-11T19:15:04.743Z,49
2022-08-11T19:30:03.593Z,49.5
2022-08-11T19:45:03.642Z,48.5
2022-08-11T20:00:05.772Z,49.5
2022-08-11T20:15:05.314Z,50
2022-08-11T20:30:05.958Z,50.5
2022-08-11T20:45:01.735Z,50.5
2022-08-11T21:00:03.542Z,50.5
2022-08-11T21:15:05.611Z,50.5
2022-08-11T21:30:05.955Z,51
2022-08-11T21:45:02.733Z,51
2022-08-11T22:00:05.941Z,51
2022-08-11T22:15:04.630Z,51.5
2022-08-11T22:30:02.547Z,51.5
2022-08-11T22:45:04.793Z,51.5
2022-08-11T23:00:03.687Z,52
2022-08-11T23:15:02.629Z,52
2022-08-11T23:30:01.816Z,51.5
2022-08-11T23:45:04.625Z,52
